Temur Kvaratskhelia

チーフスカウト - Shukura
2 1月 2028
日曜日
処理

性格

適応力 (14) 野心 (10) 物議 (7) 忠誠心 (19) プレッシャー耐性 (14) プロ意識 (13) スポーツマンシップ (19) 気質 (11)

プロフィール

指導スタイル 民主型
ライセンス 大陸プロ
決断力 7
人材管理 6
モチベーション 7
規律 8
仕事満足度
100%
疲労度
0%
役職 チーフスカウト
給与 29.9K 週給
契約 14.03.2030

パフォーマンス

態度 良い
トレーニング効果
26%
選手育成
35%
怪我予防
15%
戦術実行
15%

最近の出来事

選手を視察 たった今
補強会議に出席 たった今
補強会議に出席 たった今
選手を視察 たった今
選手を視察 7日前
選手を視察 7日前
選手を視察 7日前
選手を視察 7日前

監視中

244
選手 クラブ 状態 能力 自信 視察済み 最終確認 最新投票
Juan Cruz Zurbriggen San Telmo アクティブ 101 / 119 40% 2 30.12.2027 -
Favio Cabral Mitre アクティブ 126 / 121 40% 1 30.12.2027 -
Abubakar Bonni Enyimba アクティブ 77 / 89 40% 8 29.12.2027 -
Luciano Riveros San Martín SJ アクティブ 119 / 108 40% 1 29.12.2027 -
Augustine Nwaorisa Enyimba アクティブ 104 / 99 40% 8 28.12.2027 -
Lucas Pedraza Defensores Unidos アクティブ 103 / 115 40% 1 28.12.2027 -
Gianluca Pugliese Güemes アクティブ 118 / 110 40% 1 27.12.2027 -
Mauro Valiente Estudiantes アクティブ 107 / 106 40% 1 27.12.2027 -
Sunday Megwo Abia Warriors アクティブ 95 / 89 40% 5 26.12.2027 -
Otar Parulava Dila アクティブ 109 / 103 40% 1 25.12.2027 -
Antonio Napolitano Agropecuario Argentino アクティブ 116 / 134 40% 1 25.12.2027 -
Lautaro Gordillo Colegiales アクティブ 127 / 121 40% 1 25.12.2027 -
Daniel Barrea Godoy Cruz アクティブ 125 / 130 40% 1 25.12.2027 -
Alan Bonansea Colón アクティブ 124 / 127 40% 1 24.12.2027 -
Sergio Riffo Kolkheti アクティブ 103 / 83 40% 6 23.12.2027 -
Alejandro Viniegra Botev Vratsa アクティブ 90 / 105 40% 1 23.12.2027 -
Prince Ebhohon Warri Wolves アクティブ 93 / 84 40% 2 22.12.2027 -
Santiago Valenzuela Chaco For Ever アクティブ 105 / 127 40% 1 22.12.2027 -
Carlos Ramírez Zulia アクティブ 105 / 113 40% 2 21.12.2027 -
Dylan Cabral Arsenal アクティブ 111 / 89 40% 1 21.12.2027 -
Ezekiel Edidiong Enyimba アクティブ 102 / 106 40% 3 20.12.2027 -
Joseph Atule Barau アクティブ 83 / 76 40% 2 18.12.2027 -
Marco Miori Alvarado アクティブ 101 / 114 40% 1 18.12.2027 -
Sagir Arce Saburtalo アクティブ 99 / 111 40% 7 17.12.2027 -
Jhoao Rodríguez Deportes Quindio アクティブ 119 / 129 40% 7 17.12.2027 -
Camilo Machado Madryn アクティブ 115 / 95 40% 6 17.12.2027 -
Juan David Rueda Alianza Petrolera アクティブ 121 / 100 40% 4 17.12.2027 -
Zurab Museliani Dila アクティブ 98 / 78 40% 4 16.12.2027 -
Santiago Vera Almirante Brown アクティブ 111 / 113 40% 1 15.12.2027 -
Tornike Mikautadze Tskhinvali アクティブ 104 / 93 40% 6 14.12.2027 -
Davit Gotsiridze Kolkheti アクティブ 79 / 77 40% 4 11.12.2027 -
Tosin Olawale El-Kanemi Warriors アクティブ 86 / 87 40% 4 11.12.2027 -
Santiago Apa All Boys アクティブ 124 / 105 40% 7 10.12.2027 -
Adam Mustapha Shooting Stars アクティブ 96 / 89 40% 2 10.12.2027 -
Owen Falconis Cerrito アクティブ 107 / 111 40% 2 09.12.2027 -
Igbunu Evwierhurhoma Warri Wolves アクティブ 103 / 105 40% 4 07.12.2027 -
Matías Samaniego Talleres アクティブ 99 / 88 40% 1 06.12.2027 -
Luca Franco Arsenal アクティブ 115 / 113 40% 4 04.12.2027 -
Derek Dodson Rostov アクティブ 93 / 87 40% 1 02.12.2027 -
Davit Kvaratskhelia Zugdidi アクティブ 92 / 80 40% 1 30.11.2027 -
Kirill Tsepenkov Dnepr Mogilev アクティブ 102 / 99 40% 1 29.11.2027 -
Leonel Pollacchi San Telmo アクティブ 125 / 128 40% 2 28.11.2027 -
Beka Dartsmelia Saburtalo アクティブ 100 / 99 40% 2 28.11.2027 -
Giorgi Kveladze Samtredia アクティブ 89 / 93 40% 1 27.11.2027 -
Joel Ezra Enyimba アクティブ 88 / 80 40% 1 25.11.2027 -
Elías Peralta Lokomotivi アクティブ 89 / 111 40% 4 22.11.2027 -
Gustavo Viera Cerro Largo アクティブ 95 / 121 40% 1 22.11.2027 -
Chukwudi Okoro Nasarawa United アクティブ 82 / 95 40% 2 21.11.2027 -
Idris Ajiya Nasarawa United アクティブ 100 / 89 40% 4 20.11.2027 -
Paulo Vitor Dinamo Batumi アクティブ 107 / 107 40% 1 19.11.2027 -
Usman Abubakar El-Kanemi Warriors アクティブ 98 / 93 40% 1 17.11.2027 -
Dato Mchedlidze Tskhinvali アクティブ 108 / 116 52% 4 / 1m 14.11.2027 -
Lautaro Núñez Alvarado アクティブ 89 / 85 40% 2 14.11.2027 -
Johan Campaña Patriotas アクティブ 105 / 107 40% 1 14.11.2027 -
César Salazar Mineros de Guayana アクティブ 104 / 93 40% 2 10.11.2027 -
Agustín Dávila Cerro Largo アクティブ 100 / 87 40% 1 09.11.2027 -
Gabriel Rincon Atletico Venezuela アクティブ 95 / 84 40% 2 08.11.2027 -
Joël Kabongo Lokomotivi アクティブ 106 / 90 40% 2 08.11.2027 -
Franco Bustamante Almagro アクティブ 100 / 111 40% 1 07.11.2027 -
Matías Rapetti Defensores Unidos アクティブ 117 / 94 40% 1 05.11.2027 -
Chimobi Igwilo Rangers International アクティブ 99 / 104 40% 1 03.11.2027 -
Julen Cordero Samtredia アクティブ 90 / 84 40% 1 01.11.2027 -
Benedek Simon Sioni アクティブ 86 / 85 40% 1 28.10.2027 -
Elmer Arunta Bendel Insurance アクティブ 86 / 80 40% 4 26.10.2027 -
Cristian Rivas Bogota アクティブ 99 / 93 40% 3 25.10.2027 -
Aliyu Sugau Barau アクティブ 95 / 85 40% 1 24.10.2027 -
Mateo Stamatov Torpedo Kutaisi アクティブ 103 / 114 40% 1 24.10.2027 -
Lorenzo Monti Temperley アクティブ 110 / 91 40% 1 23.10.2027 -
Olawale Emmanuel Niger Tornadoes アクティブ 93 / 100 40% 1 17.10.2027 -
Alexey Antilevskiy Slavia Mozyr アクティブ 102 / 91 40% 1 10.10.2027 -
Didier Bueno Jaguares アクティブ 101 / 107 40% 1 09.10.2027 -
Sandro Altunashvili Dinamo Batumi アクティブ 105 / 100 40% 1 09.10.2027 -
Yeferson Rodallega Envigado アクティブ 116 / 113 40% 1 07.10.2027 -
Matej Šimić Torpedo Kutaisi アクティブ 94 / 87 40% 1 05.10.2027 -
Usman Fahad Kano Pillars アクティブ 81 / 74 40% 1 05.10.2027 -
Artem Mylchenko Dinamo Batumi アクティブ 113 / 99 40% 1 03.10.2027 -
Sani Ibrahim Wikki Tourists アクティブ 77 / 100 40% 1 03.10.2027 -
Tornike Arveladze Dinamo Batumi アクティブ 92 / 99 40% 3 02.10.2027 -
Youssef Dalouzi Renaissance アクティブ 98 / 103 40% 3 28.09.2027 -
Santiago Guzmán Wanderers アクティブ 109 / 95 40% 1 28.09.2027 -
Johnmark Atule Shooting Stars アクティブ 89 / 109 40% 2 23.09.2027 -
Andrés Tello Deportes Quindio アクティブ 111 / 91 40% 1 20.09.2027 -
Yusuff Adewale US Bougouba アクティブ 76 / 88 40% 1 18.09.2027 -
Tamaz Makatsaria Samtredia アクティブ 91 / 97 40% 1 17.09.2027 -
José Rondón Zulia アクティブ 95 / 81 40% 1 15.09.2027 -
Sebastián Parada San Luis アクティブ 102 / 107 40% 1 31.08.2027 -
Elliott List Northampton Town アクティブ 96 / 93 40% 1 03.08.2027 -
Tobías Cervera Gimnasia y Esgrima アクティブ 109 / 142 40% 1 03.08.2027 -
Bashiru Usman Niger Tornadoes アクティブ 76 / 58 40% 1 26.07.2027 -
Vadym Sydun Epicentr アクティブ 96 / 82 40% 1 26.07.2027 -
Giorgi Putkaradze Dinamo Batumi アクティブ 73 / 93 58% 1 21.06.2027 -
Dion Pereira Crawley Town アクティブ 93 / 73 40% 1 14.06.2027 -
Ethan Bristow Tranmere Rovers アクティブ 108 / 76 40% 2 01.06.2027 -
Mattia Capoferri Pergolettese アクティブ 91 / 92 40% 1 01.06.2027 -
Magomed Nasibov Pobeda アクティブ 79 / 71 40% 7 30.05.2027 -
Lorenzo Maasland Casarano アクティブ 85 / 113 40% 1 29.05.2027 -
Kirill Danilin Ural アクティブ 109 / 118 40% 2 28.05.2027 -
Zech Medley Fleetwood Town アクティブ 95 / 117 40% 1 28.05.2027 -
Ruslan Apekov Torpedo Moscow アクティブ 106 / 92 40% 4 26.05.2027 -
Denis Mironov Shinnik アクティブ 81 / 92 40% 1 25.05.2027 -
André Miranda Porto アクティブ 107 / 86 40% 1 25.05.2027 -
Alexandr Saplinov Volga アクティブ 92 / 87 40% 2 23.05.2027 -
Jakub Bednarczyk Gornik Leczna アクティブ 109 / 105 40% 3 22.05.2027 -
Daniil Penchikov Arsenal Tula アクティブ 100 / 80 40% 1 22.05.2027 -
Timur Melekestsev Arsenal Tula アクティブ 87 / 92 40% 5 19.05.2027 -
Vinicius Baiano Naxxar Lions アクティブ 97 / 104 40% 1 19.05.2027 -
Kane Drummond Oldham Athletic アクティブ 107 / 104 40% 3 18.05.2027 -
Artem Stepanovich Sevastopol アクティブ 82 / 72 40% 2 17.05.2027 -
Federico Pace Latina アクティブ 102 / 80 40% 1 17.05.2027 -
Aleksej Golijanin Sokol アクティブ 93 / 90 40% 4 12.05.2027 -
Danil Akhatov Ufa アクティブ 79 / 105 40% 5 11.05.2027 -
Thom van Bergen Groningen アクティブ 118 / 131 40% 2 11.05.2027 -
Ítalo Ural アクティブ 114 / 107 40% 1 10.05.2027 -
Daniil Agureev Amkar アクティブ 88 / 97 40% 5 08.05.2027 -
Stanislav Biblyk Chaika アクティブ 93 / 106 40% 5 08.05.2027 -
Sergey Gaiduk Salyut アクティブ 66 / 102 40% 1 06.05.2027 -
Víctor Guzmán Sporting CP アクティブ 84 / 88 40% 2 01.05.2027 -
Gevork Sarkisyan Saturn アクティブ 79 / 74 40% 1 01.05.2027 -
Martin Sekulić Ural アクティブ 112 / 91 67% 8 30.04.2027 観察
Rüstəm Əhmədzadə Sumgayit アクティブ 104 / 123 40% 1 29.04.2027 -
Igor Shkolik SKA Khabarovsk アクティブ 97 / 107 40% 1 29.04.2027 -
James Plant Tranmere Rovers アクティブ 92 / 79 40% 1 29.04.2027 -
Darío Ramírez Real Sociedad アクティブ 79 / 98 40% 2 28.04.2027 -
Gabriel Monjes Hamrun Spartans アクティブ 101 / 98 40% 2 26.04.2027 -
Anton Betyuzhnov Dinamo Vologda アクティブ 93 / 77 40% 3 24.04.2027 -
Ilja Safronov Rotor アクティブ 91 / 80 40% 5 23.04.2027 -
Carlos Zepeda Zvezda アクティブ 67 / 58 40% 2 21.04.2027 -
Kamran Aliev SKA Khabarovsk アクティブ 108 / 123 40% 8 16.04.2027 -
Giuseppe D'Agostino Giugliano アクティブ 84 / 99 40% 1 14.04.2027 -
Daniil Kondrakov KDV Tomsk アクティブ 107 / 98 40% 1 14.04.2027 -
Romelu Meunier KV Oostende アクティブ 88 / 76 40% 1 12.04.2027 -
Đorđe Pantelić Spartak Kostroma アクティブ 92 / 116 40% 2 09.04.2027 -
Slobodan Tedić Akron アクティブ 103 / 102 40% 1 09.04.2027 -
Nuri Abdokov Fakel アクティブ 89 / 113 40% 1 07.04.2027 -
Pablo García Gijón アクティブ 106 / 117 40% 1 06.04.2027 -
Dmitry Kuptsov Spartak Tambov アクティブ 70 / 74 40% 2 03.04.2027 -
Nikita Pogrebnev Ryazan アクティブ 87 / 83 40% 1 03.04.2027 -
Ekain Orobengoa Real Sociedad アクティブ 107 / 97 40% 5 31.03.2027 -
Darko Todorović Fakel アクティブ 100 / 113 40% 1 31.03.2027 -
Evgeny Voronin Volga アクティブ 97 / 107 40% 1 30.03.2027 -
Vasily Cherov Ufa アクティブ 91 / 92 40% 1 30.03.2027 -
Iker Pozo Rodina アクティブ 124 / 99 40% 2 27.03.2027 -
Josh Woods Accrington Stanley アクティブ 75 / 88 40% 1 18.03.2027 -
Mikhail Gainov Dinamo Stavropol アクティブ 73 / 88 40% 1 15.03.2027 -
Mykyta Kononov Poltava アクティブ 109 / 113 40% 1 14.03.2027 -
Sergey Gribov Dinamo Bryansk アクティブ 88 / 107 40% 1 11.03.2027 -
Leo Goglichidze Rodina アクティブ 115 / 97 40% 1 10.03.2027 -
Dawid Polkowski Feniks アクティブ 77 / 81 40% 1 07.03.2027 -
Garrik Levin Chelyabinsk アクティブ 98 / 102 40% 1 05.03.2027 -
Miloš Brnović Arsenal Tula アクティブ 128 / 115 40% 1 05.03.2027 -
Morufdeen Moshood Leixões アクティブ 92 / 99 40% 1 02.03.2027 -
Mevran Ablak Angusht アクティブ 64 / 72 40% 2 01.03.2027 -
Rashid Magomedov Neftekhimik アクティブ 79 / 107 40% 2 28.02.2027 -
Kirill Cheburakov Rostov アクティブ 67 / 58 40% 1 21.02.2027 -
Naoufal Bannis Vitesse アクティブ 120 / 116 40% 1 19.02.2027 -
Yeangel Montero Naxxar Lions アクティブ 98 / 114 40% 2 12.02.2027 -
Miloš Jovičić Zabbar St. Patrick アクティブ 94 / 116 40% 3 10.02.2027 -
Patrick Schmidt Tarxien Rainbows アクティブ 93 / 112 40% 2 10.02.2027 -
Shaft Brewer Valletta アクティブ 79 / 108 40% 1 06.02.2027 -
Timofey Shipunov Ufa アクティブ 93 / 100 40% 1 05.02.2027 -
Franklin Sasere Birkirkara アクティブ 102 / 102 40% 1 03.02.2027 -
Nikolay Boyarkin Salyut アクティブ 87 / 72 40% 1 03.02.2027 -
Ramazan Gadjimuradov Chelyabinsk アクティブ 106 / 113 40% 1 02.02.2027 -
Nikita Kireev Dinamo Vologda アクティブ 72 / 102 40% 1 02.02.2027 -
Pavel Popov Volna アクティブ 68 / 76 40% 3 01.02.2027 -
Robert Murić Floriana アクティブ 107 / 118 40% 3 25.01.2027 -
Ellis Taylor Harrogate Town アクティブ 96 / 109 40% 1 25.01.2027 -
Zurab Gigashvili Samtredia アクティブ 63 / 60 58% 1 18.01.2027 -
Artem Shabolin Nosta アクティブ 79 / 57 40% 1 29.12.2026 -
Renat Garayev AZAL アクティブ 107 / 111 40% 2 28.12.2026 -
Alexandr Yushin Torpedo Moscow アクティブ 91 / 105 40% 1 27.12.2026 -
Davit Volkovi Zira アクティブ 125 / 113 40% 2 24.12.2026 -
Paolo Yrizar Chernomorets アクティブ 104 / 114 40% 5 21.12.2026 -
Jacobo Alcalde SKA Khabarovsk アクティブ 88 / 103 40% 1 20.12.2026 -
Justin-Noël Kalumba Mallorca アクティブ 95 / 95 40% 2 19.12.2026 -
Diamanka Senghor Mosta アクティブ 82 / 84 40% 1 19.12.2026 -
Maxim Kutovoy Salyut アクティブ 91 / 66 40% 1 17.12.2026 -
Damir Céter Hamrun Spartans アクティブ 93 / 85 40% 3 15.12.2026 -
Shota Shekiladze Dila アクティブ 112 / 110 40% 3 13.12.2026 -
Ilja Gruznov Khimik アクティブ 91 / 87 40% 1 13.12.2026 -
Kirill Burykin Amkar アクティブ 75 / 82 40% 1 08.12.2026 -
Migran Ageyan Ufa アクティブ 86 / 78 40% 1 07.12.2026 -
Jere Vrcić Birkirkara アクティブ 75 / 83 40% 1 03.12.2026 -
Israel Emmanuel Hamrun Spartans アクティブ 70 / 66 40% 2 25.11.2026 -
Denis Rubanov Dinamo Stavropol アクティブ 98 / 67 40% 1 25.11.2026 -
Dmitry Lesnikov Volgar アクティブ 97 / 93 40% 1 23.11.2026 -
Daniel Udoh Salford City アクティブ 110 / 99 40% 1 23.11.2026 -
David Karaev KAMAZ アクティブ 92 / 88 40% 2 22.11.2026 -
Louis Appéré Cambridge United アクティブ 89 / 106 40% 2 19.11.2026 -
Imran Oulad Omar Dinamo Batumi アクティブ 110 / 133 40% 3 18.11.2026 -
Denzel Jubitana Neftchi アクティブ 120 / 102 40% 2 18.11.2026 -
Alan Tsaraev Arsenal Tula アクティブ 93 / 115 40% 1 17.11.2026 -
Elliot Bonds Fleetwood Town アクティブ 98 / 118 40% 1 17.11.2026 -
Javohir Esonqulov Merani アクティブ 99 / 109 40% 1 15.11.2026 -
Paul Mbong Floriana アクティブ 108 / 116 40% 1 15.11.2026 -
Job Ochieng Real Sociedad アクティブ 102 / 98 40% 1 12.11.2026 -
Ľubomír Tupta Neftchi アクティブ 109 / 99 40% 1 08.11.2026 -
Alexandr Lomovitskiy Torpedo-BelAZ アクティブ 99 / 115 40% 1 03.11.2026 -
Hakeeb Adelakun Doncaster Rovers アクティブ 94 / 85 40% 2 02.11.2026 -
Maximiliano Gómez Nacional アクティブ 127 / 111 40% 1 02.11.2026 -
Jonathan Okoronkwo Torpedo Moscow アクティブ 100 / 109 40% 1 24.10.2026 -
Alassana Jatta Notts County アクティブ 94 / 97 40% 1 22.10.2026 -
Elliot Collier Saburtalo アクティブ 108 / 87 40% 2 19.10.2026 -
Hansel Zapata Arsenal Tula アクティブ 109 / 135 40% 1 18.10.2026 -
Yegor Kortsov Dinamo Brest アクティブ 106 / 90 40% 1 11.10.2026 -
Dmitri Mandrîcenco Dinamo Batumi アクティブ 104 / 106 40% 1 11.10.2026 -
Will Davies Fleetwood Town アクティブ 105 / 93 40% 1 09.10.2026 -
Sam Nombe Milton Keynes Dons アクティブ 106 / 117 40% 1 08.10.2026 -
David Ozoh Derby County アクティブ 117 / 128 40% 1 06.10.2026 -
Nikoloz Mali Dila アクティブ 106 / 117 40% 1 05.10.2026 -
Tom Pearce Chesterfield アクティブ 116 / 119 40% 1 05.10.2026 -
Johnly Yfeko Exeter City アクティブ 90 / 106 40% 1 03.10.2026 -
Nika Kalandarishvili Dinamo Batumi アクティブ 102 / 80 40% 1 02.10.2026 -
Vagner Gonçalves Nogueira Kolkheti アクティブ 112 / 87 40% 1 01.10.2026 -
Paris Psaltis Dinamo Tbilisi アクティブ 91 / 81 40% 1 30.09.2026 -
Alex Pattison Walsall アクティブ 105 / 87 40% 1 29.09.2026 -
Manprit Sarkaria Austria Wien アクティブ 112 / 92 40% 1 29.09.2026 -
Bence Gergényi Lokomotivi アクティブ 110 / 89 40% 1 27.09.2026 -
Fede Varela Floriana アクティブ 103 / 90 40% 1 26.09.2026 -
Felipe Pires Torpedo Kutaisi アクティブ 97 / 115 40% 1 25.09.2026 -
Ibrahim Alhassan Saburtalo アクティブ 106 / 93 40% 1 24.09.2026 -
Giorgi Kharaishvili Dinamo Tbilisi アクティブ 106 / 107 40% 1 24.09.2026 -
Tedo Kikabidze Dila アクティブ 100 / 96 40% 1 23.09.2026 -
Jaïro Riedewald Sheffield United アクティブ 139 / 139 40% 1 22.09.2026 -
Jonathan Farías Torpedo Kutaisi アクティブ 112 / 101 40% 1 22.09.2026 -
Lewis Richards Crawley Town アクティブ 106 / 100 40% 1 16.09.2026 -
Lander Astiazarán Real Sociedad アクティブ 112 / 118 40% 1 16.09.2026 -
Welton Júnior Dinamo Tbilisi アクティブ 90 / 111 40% 1 14.09.2026 -
Franco Sivetti Gimnasia y Tiro アクティブ 111 / 82 40% 1 14.09.2026 -
Francisco Perruzzi Aldosivi アクティブ 116 / 118 40% 1 11.09.2026 -
Steven Alfred Torpedo-BelAZ アクティブ 109 / 107 40% 1 10.09.2026 -
Alexis Dulón Huracán アクティブ 95 / 75 40% 1 08.09.2026 -
Kekuta Manneh Samtredia アクティブ 91 / 87 40% 1 07.09.2026 -
Tomás Galván River Plate アクティブ 134 / 105 40% 1 07.09.2026 -
Mariano Bracamonte Deportivo Riestra アクティブ 138 / 102 40% 1 07.09.2026 -
Matty Stevens AFC Wimbledon アクティブ 113 / 94 40% 1 04.09.2026 -
Algassime Bah Dinamo Tbilisi アクティブ 101 / 90 40% 1 02.09.2026 -
Charles Vernam Grimsby Town アクティブ 118 / 114 40% 2 31.08.2026 -
Agustín Obregón River Plate アクティブ 104 / 142 40% 1 24.08.2026 -
Nazareno Roselli Defensa y Justicia アクティブ 94 / 137 40% 1 18.08.2026 -
Alex Cochrane Birmingham アクティブ 97 / 136 40% 1 13.08.2026 -
Giorgi Todua Lokomotivi アクティブ 45 / 51 51% 1 10.08.2026 -
Lewis Gordon Chesterfield アクティブ 103 / 96 40% 1 03.08.2026 -
Tomás Fernández Aldosivi アクティブ 112 / 132 40% 1 01.08.2026 -